Time;durP1;ratioP1;P1;durP2;ratioP2;P2;SDS_P1;SDS_P2;PMS_P1;PMS_P2;Temp;Humidity;BMP_temperature;BMP_pressure;BME280_temperature;BME280_humidity;BME280_pressure;Samples;Min_cycle;Max_cycle;Signal;HPM_P1;HPM_P2
2021/03/08 00:00:17;;;;;;;53.30;33.70;;;;;;;;;;5073396;28;20396;-73
2021/03/08 00:02:43;;;;;;;52.88;35.25;;;;;;;;;;5065402;28;20399;-73
2021/03/08 00:05:10;;;;;;;52.17;34.42;;;;;;;;;;5068657;28;20389;-73
2021/03/08 00:07:36;;;;;;;55.25;35.20;;;;;;;;;;5068178;28;20473;-72
2021/03/08 00:10:02;;;;;;;50.25;34.78;;;;;;;;;;5062733;28;20547;-73
2021/03/08 00:12:28;;;;;;;50.47;34.38;;;;;;;;;;5051393;28;21234;-73
2021/03/08 00:14:54;;;;;;;52.90;34.40;;;;;;;;;;5069148;28;20395;-73
2021/03/08 00:17:20;;;;;;;48.22;32.38;;;;;;;;;;5051252;28;20468;-73
2021/03/08 00:19:46;;;;;;;52.42;32.75;;;;;;;;;;5071337;28;21025;-73
2021/03/08 00:22:11;;;;;;;46.53;31.83;;;;;;;;;;5068209;28;20504;-73
2021/03/08 00:24:37;;;;;;;48.15;33.00;;;;;;;;;;5066577;28;20405;-72
2021/03/08 00:27:03;;;;;;;49.33;32.63;;;;;;;;;;5067616;28;20409;-73
2021/03/08 00:29:29;;;;;;;49.67;32.67;;;;;;;;;;5067831;28;20427;-73
2021/03/08 00:31:55;;;;;;;50.28;32.97;;;;;;;;;;5050806;28;20431;-73
2021/03/08 00:34:21;;;;;;;48.30;33.22;;;;;;;;;;5066279;28;20449;-73
2021/03/08 00:36:47;;;;;;;50.80;34.13;;;;;;;;;;5062996;28;20962;-73
2021/03/08 00:39:13;;;;;;;50.75;33.47;;;;;;;;;;5068820;28;20388;-73
2021/03/08 00:41:39;;;;;;;49.53;33.85;;;;;;;;;;5051183;28;20457;-74
2021/03/08 00:44:05;;;;;;;53.30;34.45;;;;;;;;;;5061143;28;20406;-73
2021/03/08 00:46:31;;;;;;;48.13;32.78;;;;;;;;;;5063289;28;21061;-73
2021/03/08 00:48:57;;;;;;;47.42;32.13;;;;;;;;;;5073189;28;20387;-73
2021/03/08 00:51:23;;;;;;;48.95;31.90;;;;;;;;;;5058958;28;20419;-73
2021/03/08 00:53:49;;;;;;;46.28;31.98;;;;;;;;;;5068118;28;20805;-73
2021/03/08 00:56:15;;;;;;;49.40;33.47;;;;;;;;;;5069912;28;20710;-73
2021/03/08 00:58:42;;;;;;;51.23;33.10;;;;;;;;;;5061521;28;20442;-73
2021/03/08 01:01:08;;;;;;;50.07;34.17;;;;;;;;;;5069769;28;20498;-73
2021/03/08 01:03:34;;;;;;;48.28;31.65;;;;;;;;;;5061377;28;20418;-72
2021/03/08 01:06:00;;;;;;;49.92;32.75;;;;;;;;;;5067604;28;20443;-72
2021/03/08 01:08:26;;;;;;;49.50;33.47;;;;;;;;;;5066870;28;20396;-73
2021/03/08 01:10:52;;;;;;;52.10;32.20;;;;;;;;;;5072011;28;20485;-73
2021/03/08 01:13:17;;;;;;;51.78;32.67;;;;;;;;;;5065294;28;20426;-73
2021/03/08 01:15:45;;;;;;;52.13;33.60;;;;;;;;;;5072923;28;20423;-73
2021/03/08 01:18:12;;;;;;;49.10;32.00;;;;;;;;;;5065134;28;20427;-73
2021/03/08 01:20:38;;;;;;;48.85;33.20;;;;;;;;;;5075990;28;20404;-73
2021/03/08 01:23:03;;;;;;;47.90;33.70;;;;;;;;;;5067268;28;20573;-74
2021/03/08 01:25:30;;;;;;;48.20;32.87;;;;;;;;;;5067092;28;20490;-73
2021/03/08 01:27:57;;;;;;;49.00;32.33;;;;;;;;;;5051412;28;20418;-73
2021/03/08 01:30:24;;;;;;;48.20;33.47;;;;;;;;;;5070503;28;20533;-72
2021/03/08 01:32:51;;;;;;;47.37;32.77;;;;;;;;;;5056583;28;20836;-73
2021/03/08 01:35:17;;;;;;;49.95;33.33;;;;;;;;;;5067459;28;20889;-73
2021/03/08 01:37:43;;;;;;;50.22;32.88;;;;;;;;;;5060837;28;20389;-73
2021/03/08 01:40:10;;;;;;;52.10;34.77;;;;;;;;;;5057967;28;20853;-73
2021/03/08 01:42:37;;;;;;;49.65;32.90;;;;;;;;;;5074013;28;20994;-73
2021/03/08 01:45:07;;;;;;;50.30;34.03;;;;;;;;;;5062392;28;20544;-73
2021/03/08 01:47:33;;;;;;;49.05;33.88;;;;;;;;;;5075441;28;20390;-73
2021/03/08 01:49:59;;;;;;;50.28;33.97;;;;;;;;;;5045423;28;20413;-73
2021/03/08 01:52:25;;;;;;;49.88;33.45;;;;;;;;;;5053992;28;20456;-73
2021/03/08 01:54:53;;;;;;;47.30;32.88;;;;;;;;;;5071545;28;20448;-73
2021/03/08 01:57:19;;;;;;;49.28;33.47;;;;;;;;;;5084099;28;20855;-73
2021/03/08 01:59:45;;;;;;;52.60;34.72;;;;;;;;;;5078769;28;20767;-73
2021/03/08 02:02:11;;;;;;;50.95;33.88;;;;;;;;;;5075328;28;20401;-73
2021/03/08 02:04:37;;;;;;;52.08;35.03;;;;;;;;;;5071902;28;20849;-73
2021/03/08 02:07:03;;;;;;;48.85;32.88;;;;;;;;;;5071180;28;20502;-74
2021/03/08 02:09:29;;;;;;;57.78;34.97;;;;;;;;;;5076354;28;20409;-74
2021/03/08 02:12:09;;;;;;;52.03;34.67;;;;;;;;;;5075849;28;20451;-73
2021/03/08 02:14:54;;;;;;;53.53;34.67;;;;;;;;;;5079239;28;20886;-72
2021/03/08 02:17:22;;;;;;;46.65;32.92;;;;;;;;;;5078408;28;20407;-72
2021/03/08 02:20:04;;;;;;;49.42;34.30;;;;;;;;;;5067287;28;20504;-73
2021/03/08 02:22:49;;;;;;;49.88;34.38;;;;;;;;;;5047448;28;20416;-72
2021/03/08 02:25:18;;;;;;;55.38;34.53;;;;;;;;;;5073624;28;20407;-73
2021/03/08 02:27:58;;;;;;;50.40;33.80;;;;;;;;;;5083201;28;20967;-74
2021/03/08 02:30:32;;;;;;;49.17;33.88;;;;;;;;;;5060825;28;20493;-73
2021/03/08 02:32:58;;;;;;;54.63;33.22;;;;;;;;;;5082996;28;20462;-73
2021/03/08 02:35:26;;;;;;;49.97;33.70;;;;;;;;;;5062629;28;20402;-73
2021/03/08 02:38:04;;;;;;;51.93;34.27;;;;;;;;;;5070780;28;20990;-73
2021/03/08 02:40:36;;;;;;;50.80;34.87;;;;;;;;;;5076363;28;20917;-74
2021/03/08 02:43:04;;;;;;;49.03;33.22;;;;;;;;;;5065472;28;20423;-73
2021/03/08 02:45:32;;;;;;;49.17;32.33;;;;;;;;;;5053191;28;20477;-73
2021/03/08 02:48:02;;;;;;;51.70;33.08;;;;;;;;;;5068854;28;20438;-73
2021/03/08 02:50:30;;;;;;;49.50;33.88;;;;;;;;;;5076409;28;20431;-73
2021/03/08 02:52:57;;;;;;;48.42;32.88;;;;;;;;;;5071544;28;20422;-73
2021/03/08 02:55:25;;;;;;;47.38;32.65;;;;;;;;;;5076889;28;20805;-73
2021/03/08 02:57:52;;;;;;;48.35;32.72;;;;;;;;;;5074155;28;20381;-72
2021/03/08 03:00:18;;;;;;;48.33;31.70;;;;;;;;;;5069638;28;20392;-73
2021/03/08 03:02:46;;;;;;;49.90;32.53;;;;;;;;;;5070892;28;20411;-73
2021/03/08 03:05:13;;;;;;;48.58;32.60;;;;;;;;;;5048455;28;20385;-73
2021/03/08 03:07:42;;;;;;;53.03;33.53;;;;;;;;;;5066319;28;20465;-74
2021/03/08 03:10:09;;;;;;;49.90;31.63;;;;;;;;;;5048996;28;20462;-74
2021/03/08 03:12:35;;;;;;;49.40;33.38;;;;;;;;;;5066535;28;20870;-72
2021/03/08 03:15:02;;;;;;;50.50;32.67;;;;;;;;;;5063145;28;20404;-73
2021/03/08 03:17:29;;;;;;;48.78;32.13;;;;;;;;;;5070056;28;20408;-72
2021/03/08 03:19:57;;;;;;;47.20;31.73;;;;;;;;;;5051645;28;20683;-72
2021/03/08 03:22:24;;;;;;;47.15;31.02;;;;;;;;;;5071407;28;20391;-73
2021/03/08 03:25:00;;;;;;;50.13;32.10;;;;;;;;;;5066007;28;20892;-73
2021/03/08 03:27:27;;;;;;;48.28;31.10;;;;;;;;;;5050639;28;20399;-73
2021/03/08 03:29:54;;;;;;;50.25;32.40;;;;;;;;;;5066823;28;20418;-72
2021/03/08 03:32:21;;;;;;;48.13;31.65;;;;;;;;;;5064500;28;20981;-73
2021/03/08 03:34:47;;;;;;;46.70;31.70;;;;;;;;;;5063407;28;20391;-73
2021/03/08 03:37:19;;;;;;;44.63;31.33;;;;;;;;;;5064092;28;20402;-73
2021/03/08 03:39:45;;;;;;;47.15;32.20;;;;;;;;;;5064331;28;20399;-72
2021/03/08 03:42:11;;;;;;;47.15;31.00;;;;;;;;;;5066226;28;20439;-73
2021/03/08 03:44:37;;;;;;;46.50;31.00;;;;;;;;;;5064525;28;20489;-72
2021/03/08 03:47:03;;;;;;;43.67;31.50;;;;;;;;;;5051684;28;21155;-73
2021/03/08 03:49:29;;;;;;;40.75;29.05;;;;;;;;;;5062099;28;20407;-73
2021/03/08 03:51:55;;;;;;;44.63;31.50;;;;;;;;;;5065073;28;20405;-73
2021/03/08 03:54:21;;;;;;;44.40;29.58;;;;;;;;;;5063650;28;20396;-73
2021/03/08 03:56:51;;;;;;;42.80;30.13;;;;;;;;;;5063016;28;20383;-73
2021/03/08 03:59:28;;;;;;;45.63;31.75;;;;;;;;;;5061615;28;20805;-72
2021/03/08 04:01:54;;;;;;;46.75;31.83;;;;;;;;;;5063387;28;20425;-73
2021/03/08 04:04:34;;;;;;;42.63;30.08;;;;;;;;;;5066333;28;20399;-73
2021/03/08 04:07:03;;;;;;;45.13;31.42;;;;;;;;;;5066801;28;20458;-73
2021/03/08 04:09:30;;;;;;;47.35;31.30;;;;;;;;;;5068963;28;20431;-72
2021/03/08 04:11:58;;;;;;;47.13;31.20;;;;;;;;;;5066635;28;20396;-73
2021/03/08 04:14:24;;;;;;;47.10;32.00;;;;;;;;;;5067572;28;20490;-72
2021/03/08 04:16:53;;;;;;;45.40;31.35;;;;;;;;;;5053372;28;20785;-72
2021/03/08 04:19:24;;;;;;;46.50;31.40;;;;;;;;;;5066372;28;20388;-72
2021/03/08 04:21:52;;;;;;;47.72;31.42;;;;;;;;;;5068895;28;20384;-73
2021/03/08 04:24:20;;;;;;;50.90;32.60;;;;;;;;;;5066866;28;20407;-72
2021/03/08 04:26:47;;;;;;;44.87;31.73;;;;;;;;;;5066800;28;20468;-73
2021/03/08 04:29:13;;;;;;;49.75;32.03;;;;;;;;;;5069656;28;20453;-72
2021/03/08 04:31:39;;;;;;;46.97;31.70;;;;;;;;;;5064988;28;20431;-73
2021/03/08 04:34:06;;;;;;;45.78;31.77;;;;;;;;;;5069583;28;20471;-72
2021/03/08 04:36:32;;;;;;;43.90;30.77;;;;;;;;;;5065120;28;20401;-73
2021/03/08 04:38:58;;;;;;;46.70;31.42;;;;;;;;;;5052079;28;20749;-73
2021/03/08 04:41:28;;;;;;;46.47;31.38;;;;;;;;;;5066412;28;20436;-73
2021/03/08 04:43:55;;;;;;;44.33;30.83;;;;;;;;;;5066808;28;20387;-72
2021/03/08 04:46:21;;;;;;;46.83;31.05;;;;;;;;;;5053648;28;20472;-73
2021/03/08 04:48:48;;;;;;;45.30;31.65;;;;;;;;;;5051769;28;20757;-73
2021/03/08 04:51:14;;;;;;;44.83;31.47;;;;;;;;;;5067799;28;20977;-72
2021/03/08 04:53:41;;;;;;;44.70;29.87;;;;;;;;;;5066171;28;20396;-72
2021/03/08 04:56:08;;;;;;;44.92;31.92;;;;;;;;;;5065023;28;20410;-73
2021/03/08 04:58:34;;;;;;;45.88;32.65;;;;;;;;;;5067049;28;20407;-73
2021/03/08 05:01:00;;;;;;;45.28;30.70;;;;;;;;;;5069087;28;20705;-73
2021/03/08 05:03:26;;;;;;;44.83;30.42;;;;;;;;;;5066584;28;20395;-73
2021/03/08 05:05:53;;;;;;;45.17;30.77;;;;;;;;;;5067944;28;20388;-73
2021/03/08 05:08:20;;;;;;;45.30;30.73;;;;;;;;;;5067716;28;20423;-73
2021/03/08 05:10:47;;;;;;;45.07;31.07;;;;;;;;;;5069019;28;20780;-73
2021/03/08 05:13:13;;;;;;;46.47;31.48;;;;;;;;;;5050903;28;20419;-73
2021/03/08 05:15:39;;;;;;;43.35;31.00;;;;;;;;;;5066341;28;20416;-73
2021/03/08 05:18:06;;;;;;;48.05;30.70;;;;;;;;;;5049082;28;20738;-73
2021/03/08 05:20:33;;;;;;;48.70;30.25;;;;;;;;;;5068248;28;20478;-73
2021/03/08 05:23:01;;;;;;;45.15;31.35;;;;;;;;;;5063399;28;20397;-73
2021/03/08 05:25:27;;;;;;;44.88;30.45;;;;;;;;;;5067433;28;20545;-73
2021/03/08 05:27:54;;;;;;;46.47;31.77;;;;;;;;;;5068735;28;20397;-73
2021/03/08 05:30:21;;;;;;;43.85;30.10;;;;;;;;;;5067278;28;20456;-73
2021/03/08 05:32:51;;;;;;;45.88;30.65;;;;;;;;;;5065439;28;20406;-73
2021/03/08 05:35:16;;;;;;;45.55;31.38;;;;;;;;;;5066132;28;20407;-73
2021/03/08 05:37:43;;;;;;;44.38;31.10;;;;;;;;;;5053230;28;20407;-72
2021/03/08 05:40:29;;;;;;;43.40;30.98;;;;;;;;;;5067400;28;20910;-73
2021/03/08 05:43:00;;;;;;;47.55;30.65;;;;;;;;;;5054917;28;20392;-73
2021/03/08 05:45:27;;;;;;;44.73;30.10;;;;;;;;;;5065252;28;21022;-73
2021/03/08 05:48:11;;;;;;;45.38;30.85;;;;;;;;;;5048036;28;20740;-73
2021/03/08 05:50:56;;;;;;;45.90;31.70;;;;;;;;;;5068345;28;20424;-73
2021/03/08 05:53:40;;;;;;;44.00;30.83;;;;;;;;;;5067501;28;20398;-73
2021/03/08 05:56:06;;;;;;;46.97;30.98;;;;;;;;;;5064099;28;20419;-73
2021/03/08 05:58:54;;;;;;;48.93;32.10;;;;;;;;;;5048197;28;20525;-72
2021/03/08 06:01:29;;;;;;;40.28;28.92;;;;;;;;;;5014938;28;21107;-73
2021/03/08 06:04:13;;;;;;;42.88;31.17;;;;;;;;;;5048067;28;20406;-73
2021/03/08 06:06:54;;;;;;;44.70;29.90;;;;;;;;;;5068565;28;20424;-73
2021/03/08 06:09:25;;;;;;;44.60;30.85;;;;;;;;;;5072706;28;20412;-73
2021/03/08 06:12:03;;;;;;;45.42;30.70;;;;;;;;;;5069320;28;20508;-74
2021/03/08 06:14:39;;;;;;;46.40;31.58;;;;;;;;;;5068578;28;20539;-73
2021/03/08 06:17:11;;;;;;;44.00;31.23;;;;;;;;;;5070268;28;20419;-73
2021/03/08 06:19:38;;;;;;;47.60;30.98;;;;;;;;;;5066386;28;20402;-73
2021/03/08 06:22:04;;;;;;;45.03;31.23;;;;;;;;;;5067529;28;20383;-73
2021/03/08 06:24:31;;;;;;;46.42;31.58;;;;;;;;;;5066125;28;20785;-73
2021/03/08 06:26:58;;;;;;;53.10;31.23;;;;;;;;;;5067873;28;20391;-73
2021/03/08 06:29:24;;;;;;;48.20;31.67;;;;;;;;;;5066696;28;20442;-73
2021/03/08 06:31:51;;;;;;;45.53;31.33;;;;;;;;;;5067037;28;20426;-73
2021/03/08 06:34:17;;;;;;;47.05;30.80;;;;;;;;;;5063432;28;20471;-73
2021/03/08 06:36:44;;;;;;;44.30;31.03;;;;;;;;;;5048223;28;20559;-74
2021/03/08 06:39:10;;;;;;;47.45;31.73;;;;;;;;;;5064505;28;20399;-73
2021/03/08 06:41:37;;;;;;;45.58;31.27;;;;;;;;;;5066062;28;20457;-74
2021/03/08 06:44:03;;;;;;;40.55;29.52;;;;;;;;;;5064043;28;20456;-74
2021/03/08 06:46:29;;;;;;;45.28;31.08;;;;;;;;;;5050664;28;20485;-73
2021/03/08 06:48:55;;;;;;;42.47;30.45;;;;;;;;;;5063400;28;20868;-73
2021/03/08 06:51:21;;;;;;;43.20;30.20;;;;;;;;;;5052684;28;20477;-73
2021/03/08 06:53:47;;;;;;;46.47;31.13;;;;;;;;;;5053119;28;21425;-73
2021/03/08 06:56:24;;;;;;;46.58;32.70;;;;;;;;;;5065426;28;20391;-73
2021/03/08 06:59:07;;;;;;;43.13;29.35;;;;;;;;;;5063467;28;20397;-73
2021/03/08 07:01:34;;;;;;;44.03;30.45;;;;;;;;;;5063567;28;21160;-74
2021/03/08 07:04:00;;;;;;;41.72;29.58;;;;;;;;;;5065044;28;20852;-73
2021/03/08 07:06:28;;;;;;;40.95;30.40;;;;;;;;;;5065396;28;20400;-73
2021/03/08 07:09:04;;;;;;;44.90;30.33;;;;;;;;;;5064437;28;20405;-73
2021/03/08 07:11:30;;;;;;;45.97;31.00;;;;;;;;;;5063700;28;20428;-73
2021/03/08 07:13:56;;;;;;;48.50;31.00;;;;;;;;;;5045164;28;20391;-74
2021/03/08 07:16:33;;;;;;;41.25;28.90;;;;;;;;;;5066944;28;20404;-73
2021/03/08 07:18:59;;;;;;;47.53;32.50;;;;;;;;;;5063726;28;20403;-73
2021/03/08 07:21:24;;;;;;;45.28;31.08;;;;;;;;;;5048185;28;20483;-72
2021/03/08 07:23:52;;;;;;;42.42;30.98;;;;;;;;;;5063909;28;20488;-73
2021/03/08 07:26:19;;;;;;;47.28;31.60;;;;;;;;;;5061478;28;20411;-72
2021/03/08 07:29:04;;;;;;;45.77;30.67;;;;;;;;;;5050796;28;20707;-73
2021/03/08 07:31:40;;;;;;;48.17;32.47;;;;;;;;;;5042261;28;20887;-73
2021/03/08 07:34:09;;;;;;;49.00;32.45;;;;;;;;;;5059990;28;21114;-73
2021/03/08 07:36:37;;;;;;;47.72;32.58;;;;;;;;;;5062595;28;20914;-73
2021/03/08 07:39:13;;;;;;;45.42;32.78;;;;;;;;;;5065107;28;20411;-73
2021/03/08 07:42:09;;;;;;;46.65;32.42;;;;;;;;;;5049232;28;20419;-73
2021/03/08 07:44:35;;;;;;;50.58;32.80;;;;;;;;;;5063937;28;20407;-72
2021/03/08 07:47:15;;;;;;;50.92;33.03;;;;;;;;;;5066414;28;20400;-73
2021/03/08 07:49:41;;;;;;;48.47;32.38;;;;;;;;;;5049922;28;20426;-74
2021/03/08 07:52:08;;;;;;;55.05;34.90;;;;;;;;;;5051113;28;20407;-73
2021/03/08 07:54:54;;;;;;;49.00;33.40;;;;;;;;;;5060063;28;20461;-76
2021/03/08 07:57:20;;;;;;;46.37;32.40;;;;;;;;;;5058946;28;20793;-74
2021/03/08 07:59:47;;;;;;;51.23;33.67;;;;;;;;;;5059427;28;20869;-73
2021/03/08 08:02:13;;;;;;;52.03;35.10;;;;;;;;;;5063663;28;20478;-72
2021/03/08 08:04:39;;;;;;;48.95;34.92;;;;;;;;;;5059514;28;20457;-74
2021/03/08 08:07:08;;;;;;;57.65;36.13;;;;;;;;;;5052224;28;20923;-73
2021/03/08 08:09:37;;;;;;;50.60;34.25;;;;;;;;;;5058751;28;20407;-73
2021/03/08 08:12:04;;;;;;;55.72;35.88;;;;;;;;;;5066328;28;20431;-73
2021/03/08 08:14:31;;;;;;;56.58;35.88;;;;;;;;;;5051052;28;20852;-73
2021/03/08 08:16:57;;;;;;;57.22;36.35;;;;;;;;;;5066416;28;20406;-72
2021/03/08 08:19:24;;;;;;;56.80;36.67;;;;;;;;;;5062312;28;20895;-73
2021/03/08 08:21:51;;;;;;;55.10;35.88;;;;;;;;;;5061593;28;20408;-73
2021/03/08 08:24:23;;;;;;;57.00;36.03;;;;;;;;;;5064830;28;20812;-73
2021/03/08 08:26:54;;;;;;;55.40;36.47;;;;;;;;;;5051280;28;20448;-69
2021/03/08 08:29:23;;;;;;;55.45;36.33;;;;;;;;;;5048617;28;20404;-74
2021/03/08 08:31:56;;;;;;;60.42;37.70;;;;;;;;;;5050958;28;20500;-73
2021/03/08 08:34:38;;;;;;;67.63;39.05;;;;;;;;;;5050536;28;20411;-72
2021/03/08 08:37:15;;;;;;;56.60;36.60;;;;;;;;;;5047390;28;20439;-73
2021/03/08 08:39:42;;;;;;;56.88;39.13;;;;;;;;;;5037255;28;20411;-72
2021/03/08 08:42:16;;;;;;;58.60;38.33;;;;;;;;;;5052077;28;20539;-72
2021/03/08 08:44:44;;;;;;;66.45;38.83;;;;;;;;;;5050634;28;20422;-72
2021/03/08 08:47:36;;;;;;;56.47;37.57;;;;;;;;;;5051164;28;20491;-72
2021/03/08 08:50:06;;;;;;;56.70;36.92;;;;;;;;;;5047187;28;20465;-72
2021/03/08 08:52:51;;;;;;;55.40;37.75;;;;;;;;;;5051069;28;20388;-72
2021/03/08 08:55:20;;;;;;;64.57;38.88;;;;;;;;;;5048714;28;20399;-72
2021/03/08 08:58:04;;;;;;;62.85;39.53;;;;;;;;;;5048901;28;20435;-73
2021/03/08 09:00:30;;;;;;;59.78;39.35;;;;;;;;;;5048629;28;20396;-70
2021/03/08 09:03:01;;;;;;;67.88;40.05;;;;;;;;;;5049406;28;20945;-73
2021/03/08 09:05:29;;;;;;;62.80;39.30;;;;;;;;;;5050991;28;20424;-72
2021/03/08 09:08:15;;;;;;;64.60;39.97;;;;;;;;;;5051648;28;21123;-72
2021/03/08 09:10:40;;;;;;;60.63;39.88;;;;;;;;;;5050502;28;20514;-71
2021/03/08 09:13:11;;;;;;;62.88;39.13;;;;;;;;;;5052709;28;20399;-72
2021/03/08 09:15:37;;;;;;;60.25;39.53;;;;;;;;;;5051662;28;20411;-71
2021/03/08 09:18:04;;;;;;;63.83;40.80;;;;;;;;;;5042174;28;20423;-72
2021/03/08 09:20:30;;;;;;;65.22;41.47;;;;;;;;;;5038657;28;20400;-73
2021/03/08 09:23:01;;;;;;;67.97;40.83;;;;;;;;;;5055589;28;20498;-73
2021/03/08 09:25:31;;;;;;;57.53;38.15;;;;;;;;;;5053305;28;20418;-74
2021/03/08 09:28:10;;;;;;;67.60;40.80;;;;;;;;;;5049514;28;20441;-72
2021/03/08 09:30:41;;;;;;;64.13;42.17;;;;;;;;;;5050250;28;20460;-72
2021/03/08 09:33:15;;;;;;;63.75;41.63;;;;;;;;;;5050712;28;20403;-71
2021/03/08 09:35:42;;;;;;;65.53;41.40;;;;;;;;;;5050480;28;20404;-71
2021/03/08 09:38:19;;;;;;;68.05;41.22;;;;;;;;;;5050904;28;20396;-71
2021/03/08 09:40:46;;;;;;;59.13;39.05;;;;;;;;;;5038473;28;20475;-76
2021/03/08 09:43:27;;;;;;;61.67;38.72;;;;;;;;;;5050189;28;20411;-75
2021/03/08 09:45:55;;;;;;;63.22;40.25;;;;;;;;;;5033906;28;21099;-72
2021/03/08 09:48:22;;;;;;;64.03;39.72;;;;;;;;;;5051161;28;20399;-73
2021/03/08 09:50:48;;;;;;;58.88;38.15;;;;;;;;;;5050692;28;20438;-72
2021/03/08 09:53:14;;;;;;;56.30;38.63;;;;;;;;;;5036287;28;20470;-72
2021/03/08 09:55:40;;;;;;;58.33;37.67;;;;;;;;;;5051963;28;20423;-72
2021/03/08 09:58:14;;;;;;;58.13;38.10;;;;;;;;;;5039663;28;20407;-72
2021/03/08 10:00:40;;;;;;;58.42;39.17;;;;;;;;;;5049886;28;20405;-73
2021/03/08 10:03:08;;;;;;;63.58;40.00;;;;;;;;;;5051994;28;20543;-73
2021/03/08 10:05:38;;;;;;;60.65;39.15;;;;;;;;;;5052994;28;20385;-72
2021/03/08 10:08:04;;;;;;;59.15;39.33;;;;;;;;;;5051549;28;20510;-73
2021/03/08 10:10:30;;;;;;;59.63;39.83;;;;;;;;;;5048050;28;20427;-79
2021/03/08 10:13:00;;;;;;;57.08;38.22;;;;;;;;;;5033670;28;20417;-74
2021/03/08 10:15:27;;;;;;;63.67;40.92;;;;;;;;;;5051987;28;20415;-74
2021/03/08 10:17:59;;;;;;;60.28;38.60;;;;;;;;;;5050104;28;20392;-75
2021/03/08 10:20:25;;;;;;;58.75;36.70;;;;;;;;;;5050635;28;20523;-74
2021/03/08 10:22:52;;;;;;;59.77;40.43;;;;;;;;;;5048435;28;20475;-73
2021/03/08 10:25:19;;;;;;;55.17;37.45;;;;;;;;;;5051339;28;20931;-73
2021/03/08 10:27:45;;;;;;;54.78;37.60;;;;;;;;;;5035914;28;20417;-74
2021/03/08 10:30:14;;;;;;;54.70;35.57;;;;;;;;;;5035518;28;20489;-74
2021/03/08 10:32:41;;;;;;;53.72;35.03;;;;;;;;;;5052147;28;20431;-74
2021/03/08 10:35:08;;;;;;;58.35;36.20;;;;;;;;;;5051454;28;20393;-74
2021/03/08 10:37:35;;;;;;;50.30;33.75;;;;;;;;;;5049166;28;21192;-73
2021/03/08 10:40:01;;;;;;;52.40;35.85;;;;;;;;;;5049774;28;21072;-73
2021/03/08 10:42:27;;;;;;;55.95;37.13;;;;;;;;;;5054041;28;20427;-73
2021/03/08 10:44:54;;;;;;;60.22;36.75;;;;;;;;;;5053269;28;20873;-73
2021/03/08 10:47:20;;;;;;;52.17;35.03;;;;;;;;;;5052830;28;20915;-73
2021/03/08 10:49:47;;;;;;;52.15;34.47;;;;;;;;;;5052753;28;20392;-75
2021/03/08 10:52:13;;;;;;;54.97;34.67;;;;;;;;;;5053499;28;20488;-73
2021/03/08 10:54:39;;;;;;;57.53;36.28;;;;;;;;;;5053494;28;20427;-73
2021/03/08 10:57:05;;;;;;;46.97;33.72;;;;;;;;;;5053433;28;20401;-74
2021/03/08 10:59:31;;;;;;;53.00;35.80;;;;;;;;;;5052108;28;20397;-73
2021/03/08 11:02:03;;;;;;;53.78;36.15;;;;;;;;;;5052721;28;20395;-74
2021/03/08 11:04:29;;;;;;;54.22;34.35;;;;;;;;;;5050858;28;20892;-74
2021/03/08 11:06:56;;;;;;;53.47;35.67;;;;;;;;;;5037151;28;20409;-74
2021/03/08 11:09:25;;;;;;;54.60;35.85;;;;;;;;;;5053195;28;20401;-74
2021/03/08 11:11:51;;;;;;;50.25;33.40;;;;;;;;;;5038513;28;20530;-74
2021/03/08 11:14:19;;;;;;;53.28;34.65;;;;;;;;;;5057860;28;20403;-73
2021/03/08 11:16:58;;;;;;;54.28;34.97;;;;;;;;;;5056554;28;20824;-74
2021/03/08 11:19:28;;;;;;;50.65;33.70;;;;;;;;;;5055474;28;20413;-73
2021/03/08 11:22:05;;;;;;;45.78;32.42;;;;;;;;;;5056765;28;22733;-74
2021/03/08 11:24:32;;;;;;;48.10;31.88;;;;;;;;;;5057891;28;20491;-73
2021/03/08 11:27:09;;;;;;;45.57;31.43;;;;;;;;;;5057016;28;20505;-74
2021/03/08 11:29:36;;;;;;;44.42;29.58;;;;;;;;;;5055553;28;20391;-73
2021/03/08 11:32:03;;;;;;;39.53;29.10;;;;;;;;;;5057120;28;20428;-74
2021/03/08 11:34:36;;;;;;;44.42;29.48;;;;;;;;;;5056072;28;20422;-74
2021/03/08 11:37:12;;;;;;;48.00;31.52;;;;;;;;;;5059375;28;20437;-74
2021/03/08 11:39:39;;;;;;;44.80;30.75;;;;;;;;;;5058125;28;20387;-74
2021/03/08 11:42:05;;;;;;;46.63;32.28;;;;;;;;;;5054570;28;20450;-74
2021/03/08 11:44:31;;;;;;;48.70;32.17;;;;;;;;;;5051824;28;20471;-73
2021/03/08 11:46:57;;;;;;;47.83;31.45;;;;;;;;;;5053705;28;20454;-73
2021/03/08 11:49:23;;;;;;;46.33;31.30;;;;;;;;;;5052848;28;20909;-75
2021/03/08 11:51:49;;;;;;;45.10;29.63;;;;;;;;;;5038552;28;20427;-73
2021/03/08 11:54:15;;;;;;;44.17;29.77;;;;;;;;;;5041111;28;20901;-74
2021/03/08 11:56:40;;;;;;;45.72;30.60;;;;;;;;;;5060669;28;20444;-75
2021/03/08 11:59:06;;;;;;;46.75;29.55;;;;;;;;;;5067152;28;20482;-75
2021/03/08 12:01:34;;;;;;;43.80;29.98;;;;;;;;;;5066156;28;20427;-74
2021/03/08 12:04:00;;;;;;;43.13;29.98;;;;;;;;;;5042013;28;20469;-74
2021/03/08 12:06:26;;;;;;;45.53;29.95;;;;;;;;;;5064839;28;21279;-74
2021/03/08 12:08:52;;;;;;;42.67;29.20;;;;;;;;;;5055051;28;20726;-74
2021/03/08 12:11:18;;;;;;;43.60;29.85;;;;;;;;;;5063906;28;20764;-76
2021/03/08 12:13:44;;;;;;;46.75;30.55;;;;;;;;;;5055159;28;20400;-75
2021/03/08 12:16:10;;;;;;;42.75;28.40;;;;;;;;;;5057915;28;20396;-77
2021/03/08 12:18:36;;;;;;;41.37;28.73;;;;;;;;;;5055997;28;20402;-73
2021/03/08 12:21:02;;;;;;;40.40;26.23;;;;;;;;;;5067490;28;20395;-74
2021/03/08 12:23:28;;;;;;;37.92;26.25;;;;;;;;;;5066503;28;20391;-75
2021/03/08 12:25:54;;;;;;;43.13;26.70;;;;;;;;;;5056672;28;22427;-74
2021/03/08 12:28:20;;;;;;;39.13;25.70;;;;;;;;;;5065412;28;20419;-73
2021/03/08 12:30:46;;;;;;;39.90;27.08;;;;;;;;;;5061472;28;20424;-75
2021/03/08 12:33:12;;;;;;;35.58;25.63;;;;;;;;;;5060371;28;20399;-74
2021/03/08 12:35:38;;;;;;;41.10;29.13;;;;;;;;;;5059689;28;20419;-74
2021/03/08 12:38:04;;;;;;;37.47;25.92;;;;;;;;;;5063556;28;20392;-74
2021/03/08 12:40:30;;;;;;;39.63;26.00;;;;;;;;;;5056427;28;20890;-78
2021/03/08 12:42:56;;;;;;;36.78;26.35;;;;;;;;;;5047196;28;20400;-76
2021/03/08 12:45:22;;;;;;;37.55;26.05;;;;;;;;;;5061437;28;20721;-77
2021/03/08 12:47:48;;;;;;;37.38;27.05;;;;;;;;;;5047206;28;20431;-78
2021/03/08 12:50:14;;;;;;;37.33;25.80;;;;;;;;;;5047048;28;20869;-78
2021/03/08 12:52:40;;;;;;;40.53;26.10;;;;;;;;;;5046738;28;20408;-76
2021/03/08 12:55:07;;;;;;;37.00;25.67;;;;;;;;;;5049013;28;20739;-79
2021/03/08 12:57:33;;;;;;;35.25;24.27;;;;;;;;;;5047321;28;20486;-78
2021/03/08 12:59:59;;;;;;;38.80;25.13;;;;;;;;;;5051513;28;20445;-74
2021/03/08 13:02:25;;;;;;;35.53;24.95;;;;;;;;;;5062796;28;21095;-76
2021/03/08 13:04:51;;;;;;;34.65;25.50;;;;;;;;;;5066733;28;20400;-77
2021/03/08 13:07:17;;;;;;;35.40;25.95;;;;;;;;;;5067636;28;20742;-74
2021/03/08 13:09:43;;;;;;;36.37;25.57;;;;;;;;;;5060354;28;20778;-75
2021/03/08 13:12:09;;;;;;;34.70;24.58;;;;;;;;;;5065876;28;20463;-77
2021/03/08 13:14:35;;;;;;;35.45;23.48;;;;;;;;;;5065285;28;20930;-76
2021/03/08 13:17:01;;;;;;;33.30;23.45;;;;;;;;;;5066919;28;20389;-75
2021/03/08 13:19:27;;;;;;;32.08;22.25;;;;;;;;;;5065037;28;20402;-76
2021/03/08 13:21:53;;;;;;;32.22;22.23;;;;;;;;;;5064958;28;20951;-75
2021/03/08 13:24:19;;;;;;;30.80;21.90;;;;;;;;;;5067368;28;20842;-76
2021/03/08 13:26:45;;;;;;;32.80;22.95;;;;;;;;;;5064899;28;20842;-75
2021/03/08 13:29:11;;;;;;;35.22;23.08;;;;;;;;;;5051007;28;20396;-75
2021/03/08 13:31:37;;;;;;;34.13;23.50;;;;;;;;;;5049016;28;20435;-74
2021/03/08 13:34:03;;;;;;;30.08;22.35;;;;;;;;;;5049007;28;20443;-76
2021/03/08 13:36:29;;;;;;;33.95;22.33;;;;;;;;;;5064923;28;20392;-76
2021/03/08 13:38:55;;;;;;;30.63;22.20;;;;;;;;;;5050907;28;20395;-75
2021/03/08 13:41:21;;;;;;;31.35;22.52;;;;;;;;;;5042371;28;20425;-75
2021/03/08 13:43:47;;;;;;;34.38;22.67;;;;;;;;;;5045191;28;20397;-75
2021/03/08 13:46:13;;;;;;;29.90;22.08;;;;;;;;;;5046998;28;20840;-76
2021/03/08 13:48:39;;;;;;;30.60;22.10;;;;;;;;;;5044080;28;20393;-76
2021/03/08 13:51:06;;;;;;;34.03;22.83;;;;;;;;;;5044026;28;20530;-77
2021/03/08 13:53:32;;;;;;;32.10;22.55;;;;;;;;;;5047103;28;20401;-72
2021/03/08 13:55:58;;;;;;;30.92;22.48;;;;;;;;;;5046291;28;20390;-76
2021/03/08 13:58:24;;;;;;;32.60;23.27;;;;;;;;;;5046704;28;20436;-75
2021/03/08 14:00:50;;;;;;;33.38;23.35;;;;;;;;;;5042810;28;20483;-76
2021/03/08 14:03:16;;;;;;;31.27;22.73;;;;;;;;;;5028421;28;20472;-75
2021/03/08 14:05:42;;;;;;;32.13;22.48;;;;;;;;;;5045241;28;20416;-76
2021/03/08 14:08:08;;;;;;;32.23;23.40;;;;;;;;;;5045269;28;20876;-74
2021/03/08 14:10:34;;;;;;;33.50;22.92;;;;;;;;;;5030585;28;20491;-76
2021/03/08 14:13:00;;;;;;;33.08;23.00;;;;;;;;;;5043549;28;20425;-75
2021/03/08 14:15:26;;;;;;;38.75;23.48;;;;;;;;;;5043154;28;20424;-76
2021/03/08 14:17:52;;;;;;;31.02;22.63;;;;;;;;;;5023865;28;20421;-79
2021/03/08 14:20:18;;;;;;;31.73;22.63;;;;;;;;;;5025667;28;20480;-76
2021/03/08 14:22:49;;;;;;;33.08;23.70;;;;;;;;;;5044139;28;20930;-76